Terminal Aerodrome Forecast
Issued by NWS Memphis, TN

Home | Current Version | Previous Version | Text Only | Print | Product List | Glossary On
Versions: 1 2 3 4 5 6 7 8 9 10 11 12 13 14 15 16 17
000
FTUS44 KMEG 302320
TAFJBR
TAF
KJBR 302320Z 3100/3124 26008KT P6SM VCSH BKN040 BKN250
     FM310100 28008KT P6SM BKN050 BKN250
     FM310500 VRB04KT P6SM -SHRA VCTS BKN025CB OVC035
      TEMPO 3108/3112 4SM -TSRA BKN015CB OVC025
     FM311700 36010KT P6SM VCSH SCT012 OVC020=

USA.gov is the U.S. government's official web portal to all federal, state and local government web resources and services.